createdAt,value
2022-08-25T00:02:11.213Z,14.55
2022-08-25T00:07:12.844Z,15.50
2022-08-25T00:12:20.301Z,14.95
2022-08-25T00:17:21.898Z,14.90
2022-08-25T00:22:23.578Z,15.68
2022-08-25T00:27:25.989Z,16.02
2022-08-25T00:32:27.663Z,16.70
2022-08-25T00:37:29.335Z,17.23
2022-08-25T00:42:31.679Z,15.75
2022-08-25T00:47:33.399Z,17.33
2022-08-25T00:52:43.067Z,16.20
2022-08-25T00:58:14.084Z,16.70
2022-08-25T01:03:19.108Z,17.13
2022-08-25T01:08:25.576Z,18.38
2022-08-25T01:13:47.119Z,17.05
2022-08-25T01:18:51.883Z,17.27
2022-08-25T01:23:58.140Z,17.13
2022-08-25T01:29:20.305Z,16.10
2022-08-25T01:34:22.281Z,15.68
2022-08-25T01:39:25.183Z,17.95
2022-08-25T01:44:26.807Z,18.92
2022-08-25T01:49:28.753Z,19.15
2022-08-25T01:54:30.350Z,19.58
2022-08-25T01:59:32.112Z,20.02
2022-08-25T02:04:34.387Z,21.38
2022-08-25T02:09:37.651Z,20.10
2022-08-25T02:14:39.293Z,20.73
2022-08-25T02:19:43.228Z,20.33
2022-08-25T02:24:44.948Z,19.90
2022-08-25T02:29:47.318Z,19.77
2022-08-25T02:34:48.957Z,19.63
2022-08-25T02:39:50.576Z,19.02
2022-08-25T02:44:52.646Z,18.42
2022-08-25T02:49:54.796Z,17.35
2022-08-25T02:54:56.439Z,18.60
2022-08-25T02:59:58.990Z,20.92
2022-08-25T03:05:00.857Z,19.77
2022-08-25T03:10:08.919Z,18.45
2022-08-25T03:15:12.824Z,19.92
2022-08-25T03:20:15.823Z,17.65
2022-08-25T03:25:37.315Z,20.85
2022-08-25T03:30:38.958Z,20.05
2022-08-25T03:35:40.787Z,19.60
2022-08-25T03:40:42.512Z,19.13
2022-08-25T03:45:46.464Z,19.65
2022-08-25T03:50:51.959Z,20.30
2022-08-25T03:55:53.869Z,19.70
2022-08-25T04:00:56.810Z,20.92
2022-08-25T04:06:02.649Z,19.75
2022-08-25T04:11:14.310Z,19.87
2022-08-25T04:16:25.309Z,19.00
2022-08-25T04:21:27.999Z,22.08
2022-08-25T04:26:36.773Z,22.25
2022-08-25T04:31:41.141Z,22.25
2022-08-25T04:36:42.773Z,20.00
2022-08-25T04:41:44.364Z,22.45
2022-08-25T04:46:46.002Z,21.65
2022-08-25T04:51:47.864Z,23.55
2022-08-25T04:56:54.061Z,23.38
2022-08-25T05:01:57.472Z,23.67
2022-08-25T05:07:00.362Z,24.80
2022-08-25T05:12:02.845Z,24.60
2022-08-25T05:17:04.845Z,26.00
2022-08-25T05:22:06.845Z,25.52
2022-08-25T05:27:08.433Z,22.33
2022-08-25T05:32:10.365Z,24.30
2022-08-25T05:37:12.372Z,23.83
2022-08-25T05:42:14.119Z,23.90
2022-08-25T05:47:15.733Z,23.73
2022-08-25T05:52:20.032Z,22.63
2022-08-25T05:57:21.906Z,23.30
2022-08-25T06:02:42.014Z,20.30
2022-08-25T06:07:48.509Z,19.00
2022-08-25T06:12:50.701Z,22.05
2022-08-25T06:17:55.725Z,19.00
2022-08-25T06:22:59.423Z,22.73
2022-08-25T06:28:01.071Z,22.85
2022-08-25T06:33:02.716Z,22.60
2022-08-25T06:38:04.445Z,23.35
2022-08-25T06:43:08.925Z,23.65
2022-08-25T06:48:11.212Z,24.83
2022-08-25T06:53:13.277Z,24.25
2022-08-25T06:58:14.846Z,25.88
2022-08-25T07:03:16.598Z,26.30
2022-08-25T07:08:19.319Z,21.85
2022-08-25T07:13:21.122Z,24.00
2022-08-25T07:18:22.831Z,22.90
2022-08-25T07:23:25.843Z,24.48
2022-08-25T07:28:27.495Z,23.92
2022-08-25T07:33:29.097Z,23.02
2022-08-25T07:38:31.241Z,22.88
2022-08-25T07:43:32.941Z,22.50
2022-08-25T07:48:34.519Z,21.83
2022-08-25T07:53:37.690Z,19.63
2022-08-25T07:58:40.833Z,20.13
2022-08-25T08:03:50.960Z,18.17
2022-08-25T08:08:54.612Z,19.02
2022-08-25T08:13:59.955Z,18.77
2022-08-25T08:19:02.985Z,20.95
2022-08-25T08:24:14.891Z,17.90
2022-08-25T08:29:27.843Z,18.38
2022-08-25T08:34:30.517Z,19.05
2022-08-25T08:39:32.238Z,15.73
2022-08-25T08:44:46.651Z,15.23
2022-08-25T08:50:23.965Z,15.40
2022-08-25T08:55:39.066Z,14.57
2022-08-25T09:00:51.849Z,20.08
2022-08-25T09:05:59.215Z,14.70
2022-08-25T09:11:30.487Z,14.80
2022-08-25T09:16:57.531Z,12.55
2022-08-25T09:22:35.587Z,13.60
2022-08-25T09:28:08.454Z,12.35
2022-08-25T09:33:12.171Z,11.63
2022-08-25T09:38:13.871Z,11.18
2022-08-25T09:43:37.109Z,10.63
2022-08-25T09:48:56.435Z,10.57
2022-08-25T09:54:10.749Z,9.15
2022-08-25T09:59:19.018Z,10.95
2022-08-25T10:04:28.801Z,9.02
2022-08-25T10:09:34.572Z,10.07
2022-08-25T10:14:44.676Z,8.95
2022-08-25T10:19:46.350Z,9.48
2022-08-25T10:24:51.314Z,8.57
2022-08-25T10:30:17.989Z,7.47
2022-08-25T10:35:28.075Z,7.68
2022-08-25T10:40:47.655Z,6.95
2022-08-25T10:45:56.631Z,6.15
2022-08-25T10:51:28.446Z,6.43
2022-08-25T10:56:36.920Z,6.38
2022-08-25T11:02:06.579Z,6.25
2022-08-25T11:07:32.573Z,6.13
2022-08-25T11:12:45.935Z,7.18
2022-08-25T11:18:03.735Z,6.68
2022-08-25T11:23:21.373Z,6.22
2022-08-25T11:28:28.429Z,6.22
2022-08-25T11:33:31.183Z,6.63
2022-08-25T11:38:59.864Z,7.03
2022-08-25T11:44:30.147Z,6.72
2022-08-25T11:49:51.265Z,5.38
2022-08-25T11:54:52.952Z,6.70
2022-08-25T11:59:57.131Z,5.40
2022-08-25T12:04:58.953Z,6.37
2022-08-25T12:10:03.471Z,5.95
2022-08-25T12:15:26.975Z,5.93
2022-08-25T12:20:53.562Z,6.47
2022-08-25T12:25:58.796Z,6.00
2022-08-25T12:31:09.032Z,5.85
2022-08-25T12:36:25.930Z,6.10
2022-08-25T12:41:31.545Z,5.25
2022-08-25T12:46:39.442Z,6.30
2022-08-25T12:51:59.999Z,5.30
2022-08-25T12:57:08.066Z,5.63
2022-08-25T13:02:52.230Z,5.57
2022-08-25T13:08:34.023Z,5.88
2022-08-25T13:14:04.228Z,5.78
2022-08-25T13:19:07.063Z,5.07
2022-08-25T13:24:26.932Z,5.18
2022-08-25T13:29:35.829Z,4.93
2022-08-25T13:34:43.448Z,5.78
2022-08-25T13:39:56.334Z,5.50
2022-08-25T13:44:58.527Z,4.88
2022-08-25T13:50:20.777Z,5.53
2022-08-25T13:55:51.236Z,5.03
2022-08-25T14:01:23.133Z,5.40
2022-08-25T14:06:29.426Z,5.93
2022-08-25T14:11:33.311Z,5.85
2022-08-25T14:17:16.516Z,6.88
2022-08-25T14:22:28.325Z,6.05
2022-08-25T14:27:29.939Z,6.28
2022-08-25T14:32:31.680Z,6.35
2022-08-25T14:37:34.826Z,5.82
2022-08-25T14:42:36.399Z,6.43
2022-08-25T14:47:38.613Z,6.15
2022-08-25T14:52:42.094Z,5.95
2022-08-25T14:57:44.363Z,5.47
2022-08-25T15:02:49.401Z,5.47
2022-08-25T15:08:12.173Z,6.18
2022-08-25T15:13:14.719Z,6.28
2022-08-25T15:18:17.232Z,6.28
2022-08-25T15:23:19.306Z,5.55
2022-08-25T15:28:22.467Z,7.20
2022-08-25T15:33:24.583Z,6.53
2022-08-25T15:38:26.162Z,5.75
2022-08-25T15:43:28.045Z,5.88
2022-08-25T15:48:29.706Z,6.85
2022-08-25T15:53:31.425Z,5.97
2022-08-25T15:58:35.335Z,6.45
2022-08-25T16:03:37.219Z,6.78
2022-08-25T16:08:39.449Z,6.40
2022-08-25T16:18:46.371Z,6.35
2022-08-25T16:23:48.838Z,5.78
2022-08-25T16:28:50.771Z,7.18
2022-08-25T16:33:56.042Z,7.05
2022-08-25T16:39:01.408Z,6.20
2022-08-25T16:44:07.754Z,7.28
2022-08-25T16:49:14.507Z,8.38
2022-08-25T16:54:35.975Z,7.87
2022-08-25T16:59:37.696Z,8.07
2022-08-25T17:04:40.697Z,7.47
2022-08-25T17:09:42.485Z,7.80
2022-08-25T17:14:44.069Z,7.65
2022-08-25T17:19:48.032Z,8.35
2022-08-25T17:24:59.440Z,7.55
2022-08-25T17:30:03.071Z,8.32
2022-08-25T17:35:06.055Z,9.27
2022-08-25T17:40:09.688Z,10.32
2022-08-25T17:45:12.736Z,8.15
2022-08-25T17:50:15.056Z,8.35
2022-08-25T17:55:23.295Z,7.90
2022-08-25T18:00:25.348Z,8.80
2022-08-25T18:05:27.917Z,8.30
2022-08-25T18:10:29.972Z,8.45
2022-08-25T18:15:33.915Z,8.88
2022-08-25T18:20:35.583Z,9.57
2022-08-25T18:25:37.389Z,9.68
2022-08-25T18:30:43.820Z,9.13
2022-08-25T18:35:46.430Z,9.30
2022-08-25T18:40:56.206Z,9.65
2022-08-25T18:46:03.601Z,10.35
2022-08-25T18:51:07.480Z,9.70
2022-08-25T19:01:18.194Z,11.48
2022-08-25T19:06:20.645Z,11.77
2022-08-25T19:11:23.206Z,11.70
2022-08-25T19:16:41.214Z,10.43
2022-08-25T19:21:45.484Z,11.35
2022-08-25T19:26:54.478Z,11.50
2022-08-25T19:31:57.341Z,12.38
2022-08-25T19:37:04.645Z,11.55
2022-08-25T19:42:07.451Z,12.88
2022-08-25T19:47:09.337Z,12.85
2022-08-25T19:52:17.170Z,12.68
2022-08-25T19:57:28.266Z,12.47
2022-08-25T20:02:44.296Z,11.98
2022-08-25T20:07:45.949Z,12.45
2022-08-25T20:12:47.865Z,14.43
2022-08-25T20:17:49.672Z,12.90
2022-08-25T20:22:51.574Z,13.00
2022-08-25T20:27:56.462Z,12.88
2022-08-25T20:32:58.294Z,13.38
2022-08-25T20:38:00.965Z,13.35
2022-08-25T20:43:04.356Z,13.88
2022-08-25T20:48:06.154Z,13.32
2022-08-25T20:53:10.189Z,13.93
2022-08-25T20:58:16.074Z,13.30
2022-08-25T21:03:17.769Z,12.88
2022-08-25T21:08:21.702Z,13.88
2022-08-25T21:13:25.749Z,13.00
2022-08-25T21:18:31.531Z,15.27
2022-08-25T21:23:34.468Z,13.90
2022-08-25T21:28:36.187Z,14.00
2022-08-25T21:33:38.867Z,14.35
2022-08-25T21:38:40.853Z,14.82
2022-08-25T21:43:45.506Z,15.10
2022-08-25T21:48:50.166Z,12.63
2022-08-25T21:54:08.811Z,13.73
2022-08-25T21:59:14.192Z,14.48
2022-08-25T22:04:15.915Z,15.93
2022-08-25T22:09:18.035Z,13.85
2022-08-25T22:14:20.615Z,13.50
2022-08-25T22:19:23.122Z,14.90
2022-08-25T22:24:28.467Z,14.57
2022-08-25T22:29:30.972Z,15.98
2022-08-25T22:34:34.455Z,15.57
2022-08-25T22:39:36.194Z,14.98
2022-08-25T22:44:42.575Z,15.40
2022-08-25T22:49:44.528Z,14.80
2022-08-25T22:54:46.980Z,15.40
2022-08-25T22:59:48.598Z,16.45
2022-08-25T23:04:51.255Z,15.48
2022-08-25T23:10:03.061Z,14.27
2022-08-25T23:15:08.783Z,15.95
2022-08-25T23:20:29.182Z,15.48
2022-08-25T23:25:32.758Z,15.88
2022-08-25T23:30:35.139Z,15.65
2022-08-25T23:35:44.406Z,15.20
2022-08-25T23:40:46.605Z,15.50
2022-08-25T23:45:49.512Z,15.18
2022-08-25T23:50:54.121Z,15.45
2022-08-25T23:55:57.396Z,15.20
